createdAt,value
2018-03-30T00:00:01.409Z,8.04672
2018-03-30T00:00:13.599Z,6.437376
2018-03-30T00:00:25.751Z,6.437376
2018-03-30T00:00:37.907Z,6.437376
2018-03-30T00:00:50.468Z,6.437376
2018-03-30T00:01:02.610Z,6.437376
2018-03-30T00:01:14.756Z,3.218688
2018-03-30T00:01:26.923Z,3.218688
2018-03-30T00:01:39.062Z,3.218688
2018-03-30T00:01:51.231Z,6.437376
2018-03-30T00:02:03.388Z,8.04672
2018-03-30T00:02:15.541Z,8.04672
2018-03-30T00:02:27.670Z,8.04672
2018-03-30T00:02:39.833Z,8.04672
2018-03-30T00:02:51.981Z,8.04672
2018-03-30T00:03:04.128Z,3.218688
2018-03-30T00:03:16.292Z,3.218688
2018-03-30T00:03:28.467Z,3.218688
2018-03-30T00:03:40.617Z,4.828032
2018-03-30T00:03:52.753Z,6.437376
2018-03-30T00:04:04.903Z,3.218688
2018-03-30T00:04:17.064Z,4.828032
2018-03-30T00:04:29.249Z,6.437376
2018-03-30T00:04:41.846Z,6.437376
2018-03-30T00:04:54.126Z,6.437376
2018-03-30T00:05:06.305Z,1.609344
2018-03-30T00:05:18.461Z,1.609344
2018-03-30T00:05:30.611Z,1.609344
2018-03-30T00:05:42.782Z,1.609344
2018-03-30T00:05:54.973Z,3.218688
2018-03-30T00:06:07.172Z,3.218688
2018-03-30T00:06:19.339Z,3.218688
2018-03-30T00:06:31.490Z,3.218688
2018-03-30T00:06:43.631Z,3.218688
2018-03-30T00:06:55.783Z,3.218688
2018-03-30T00:07:07.983Z,3.218688
2018-03-30T00:07:20.122Z,3.218688
2018-03-30T00:07:32.298Z,3.218688
2018-03-30T00:07:44.461Z,3.218688
2018-03-30T00:07:56.596Z,3.218688
2018-03-30T00:08:08.753Z,0
2018-03-30T00:08:20.924Z,3.218688
2018-03-30T00:08:33.076Z,3.218688
2018-03-30T00:08:45.249Z,3.218688
2018-03-30T00:08:57.390Z,3.218688
2018-03-30T00:09:09.527Z,1.609344
2018-03-30T00:09:21.696Z,1.609344
2018-03-30T00:09:33.868Z,1.609344
2018-03-30T00:09:46.284Z,1.609344
2018-03-30T00:09:58.434Z,1.609344
2018-03-30T00:10:10.587Z,0
2018-03-30T00:10:22.736Z,0
2018-03-30T00:10:34.881Z,1.609344
2018-03-30T00:10:47.042Z,1.609344
2018-03-30T00:10:59.185Z,1.609344
2018-03-30T00:11:11.334Z,0
2018-03-30T00:11:23.538Z,1.609344
2018-03-30T00:11:35.709Z,1.609344
2018-03-30T00:11:47.872Z,3.218688
2018-03-30T00:12:00.030Z,3.218688
2018-03-30T00:12:12.230Z,1.609344
2018-03-30T00:12:24.395Z,1.609344
2018-03-30T00:12:36.547Z,1.609344
2018-03-30T00:12:48.868Z,1.609344
2018-03-30T00:13:01.149Z,1.609344
2018-03-30T00:13:13.312Z,1.609344
2018-03-30T00:13:25.459Z,1.609344
2018-03-30T00:13:37.606Z,3.218688
2018-03-30T00:13:49.779Z,3.218688
2018-03-30T00:14:01.956Z,3.218688
2018-03-30T00:14:14.111Z,1.609344
2018-03-30T00:14:26.248Z,1.609344
2018-03-30T00:14:38.413Z,1.609344
2018-03-30T00:14:50.631Z,3.218688
2018-03-30T00:15:02.781Z,3.218688
2018-03-30T00:15:14.932Z,3.218688
2018-03-30T00:15:27.135Z,3.218688
2018-03-30T00:15:39.286Z,3.218688
2018-03-30T00:15:51.437Z,3.218688
2018-03-30T00:16:03.650Z,0
2018-03-30T00:16:15.818Z,1.609344
2018-03-30T00:16:27.963Z,1.609344
2018-03-30T00:16:40.129Z,1.609344
2018-03-30T00:16:52.297Z,1.609344
2018-03-30T00:17:04.504Z,3.218688
2018-03-30T00:17:16.677Z,3.218688
2018-03-30T00:17:28.861Z,3.218688
2018-03-30T00:17:41.015Z,3.218688
2018-03-30T00:17:53.154Z,3.218688
2018-03-30T00:18:05.304Z,1.609344
2018-03-30T00:18:17.529Z,3.218688
2018-03-30T00:18:29.684Z,3.218688
2018-03-30T00:18:41.832Z,3.218688
2018-03-30T00:18:54.001Z,3.218688
2018-03-30T00:19:06.162Z,1.609344
2018-03-30T00:19:18.321Z,1.609344
2018-03-30T00:19:30.477Z,1.609344
2018-03-30T00:19:42.624Z,1.609344
2018-03-30T00:19:54.782Z,1.609344
2018-03-30T00:20:06.918Z,0
2018-03-30T00:20:19.070Z,1.609344
2018-03-30T00:20:31.199Z,1.609344
2018-03-30T00:20:43.378Z,1.609344
2018-03-30T00:20:55.563Z,1.609344
2018-03-30T00:21:07.705Z,3.218688
2018-03-30T00:21:19.888Z,3.218688
2018-03-30T00:21:32.047Z,3.218688
2018-03-30T00:21:44.206Z,3.218688
2018-03-30T00:21:56.371Z,3.218688
2018-03-30T00:22:08.597Z,3.218688
2018-03-30T00:22:20.758Z,3.218688
2018-03-30T00:22:32.902Z,3.218688
2018-03-30T00:22:45.111Z,3.218688
2018-03-30T00:22:57.258Z,3.218688
2018-03-30T00:23:09.426Z,3.218688
2018-03-30T00:23:21.617Z,6.437376
2018-03-30T00:23:33.795Z,6.437376
2018-03-30T00:23:45.968Z,6.437376
2018-03-30T00:23:58.134Z,6.437376
2018-03-30T00:24:10.305Z,1.609344
2018-03-30T00:24:22.477Z,1.609344
2018-03-30T00:24:34.643Z,1.609344
2018-03-30T00:24:46.787Z,1.609344
2018-03-30T00:24:58.926Z,1.609344
2018-03-30T00:25:11.125Z,3.218688
2018-03-30T00:25:23.266Z,3.218688
2018-03-30T00:25:35.402Z,3.218688
2018-03-30T00:25:47.568Z,3.218688
2018-03-30T00:25:59.733Z,3.218688
2018-03-30T00:26:11.902Z,3.218688
2018-03-30T00:26:24.135Z,3.218688
2018-03-30T00:26:36.489Z,3.218688
2018-03-30T00:26:48.656Z,3.218688
2018-03-30T00:27:00.868Z,3.218688
2018-03-30T00:27:13.018Z,6.437376
2018-03-30T00:27:25.199Z,6.437376
2018-03-30T00:27:37.359Z,6.437376
2018-03-30T00:27:49.508Z,8.04672
2018-03-30T00:28:01.662Z,8.04672
2018-03-30T00:28:13.836Z,8.04672
2018-03-30T00:28:25.987Z,8.04672
2018-03-30T00:28:38.141Z,8.04672
2018-03-30T00:28:50.282Z,9.656064
2018-03-30T00:29:02.441Z,9.656064
2018-03-30T00:29:14.604Z,8.04672
2018-03-30T00:29:26.762Z,8.04672
2018-03-30T00:29:38.911Z,8.04672
2018-03-30T00:29:51.099Z,8.04672
2018-03-30T00:30:03.268Z,4.828032
2018-03-30T00:30:15.442Z,4.828032
2018-03-30T00:30:27.580Z,4.828032
2018-03-30T00:30:39.745Z,6.437376
2018-03-30T00:30:51.900Z,6.437376
2018-03-30T00:31:04.057Z,3.218688
2018-03-30T00:31:16.206Z,3.218688
2018-03-30T00:31:28.354Z,3.218688
2018-03-30T00:31:40.536Z,3.218688
2018-03-30T00:31:52.705Z,3.218688
2018-03-30T00:32:04.918Z,1.609344
2018-03-30T00:32:17.071Z,1.609344
2018-03-30T00:32:29.235Z,3.218688
2018-03-30T00:32:41.417Z,4.828032
2018-03-30T00:32:53.559Z,8.04672
2018-03-30T00:33:05.718Z,4.828032
2018-03-30T00:33:17.898Z,4.828032
2018-03-30T00:33:30.310Z,6.437376
2018-03-30T00:33:42.432Z,6.437376
2018-03-30T00:33:54.595Z,6.437376
2018-03-30T00:34:06.788Z,1.609344
2018-03-30T00:34:18.952Z,3.218688
2018-03-30T00:34:31.172Z,3.218688
2018-03-30T00:34:43.356Z,3.218688
2018-03-30T00:34:55.506Z,3.218688
2018-03-30T00:35:07.705Z,8.04672
2018-03-30T00:35:19.860Z,8.04672
2018-03-30T00:35:32.023Z,9.656064
2018-03-30T00:35:44.240Z,9.656064
2018-03-30T00:35:56.420Z,9.656064
2018-03-30T00:36:08.598Z,8.04672
2018-03-30T00:36:20.767Z,8.04672
2018-03-30T00:36:32.924Z,8.04672
2018-03-30T00:36:45.121Z,8.04672
2018-03-30T00:36:57.312Z,8.04672
2018-03-30T00:37:09.481Z,1.609344
2018-03-30T00:37:21.657Z,3.218688
2018-03-30T00:37:33.852Z,3.218688
2018-03-30T00:37:45.998Z,3.218688
2018-03-30T00:37:58.158Z,3.218688
2018-03-30T00:38:10.315Z,3.218688
2018-03-30T00:38:22.509Z,3.218688
2018-03-30T00:38:34.655Z,3.218688
2018-03-30T00:38:46.824Z,3.218688
2018-03-30T00:38:58.997Z,3.218688
2018-03-30T00:39:11.178Z,3.218688
2018-03-30T00:39:23.365Z,6.437376
2018-03-30T00:39:35.655Z,6.437376
2018-03-30T00:39:48.004Z,6.437376
2018-03-30T00:40:00.238Z,6.437376
2018-03-30T00:40:12.409Z,6.437376
2018-03-30T00:40:24.573Z,6.437376
2018-03-30T00:40:36.757Z,6.437376
2018-03-30T00:40:48.944Z,6.437376
2018-03-30T00:41:01.112Z,6.437376
2018-03-30T00:41:13.312Z,4.828032
2018-03-30T00:41:25.482Z,4.828032
2018-03-30T00:41:37.641Z,4.828032
2018-03-30T00:41:49.818Z,4.828032
2018-03-30T00:42:02.004Z,11.265408
2018-03-30T00:42:14.187Z,11.265408
2018-03-30T00:42:26.341Z,11.265408
2018-03-30T00:42:38.518Z,11.265408
2018-03-30T00:42:50.678Z,11.265408
2018-03-30T00:43:02.852Z,11.265408
2018-03-30T00:43:15.015Z,11.265408
2018-03-30T00:43:27.232Z,11.265408
2018-03-30T00:43:39.378Z,11.265408
2018-03-30T00:43:51.536Z,11.265408
2018-03-30T00:44:03.695Z,6.437376
2018-03-30T00:44:15.847Z,6.437376
2018-03-30T00:44:28.005Z,8.04672
2018-03-30T00:44:40.198Z,12.874752
2018-03-30T00:44:52.420Z,12.874752
2018-03-30T00:45:04.625Z,8.04672
2018-03-30T00:45:16.767Z,9.656064
2018-03-30T00:45:28.911Z,9.656064
2018-03-30T00:45:41.062Z,9.656064
2018-03-30T00:45:53.218Z,9.656064
2018-03-30T00:46:05.369Z,6.437376
2018-03-30T00:46:17.537Z,8.04672
2018-03-30T00:46:29.699Z,8.04672
2018-03-30T00:46:41.856Z,11.265408
2018-03-30T00:46:54.035Z,11.265408
2018-03-30T00:47:06.242Z,9.656064
2018-03-30T00:47:18.395Z,9.656064
2018-03-30T00:47:30.555Z,9.656064
2018-03-30T00:47:42.688Z,9.656064
2018-03-30T00:47:55.107Z,9.656064
2018-03-30T00:48:07.239Z,4.828032
2018-03-30T00:48:19.381Z,6.437376
2018-03-30T00:48:31.591Z,8.04672
2018-03-30T00:48:43.745Z,11.265408
2018-03-30T00:48:56.061Z,11.265408
2018-03-30T00:49:08.253Z,9.656064
2018-03-30T00:49:20.458Z,9.656064
2018-03-30T00:49:32.636Z,9.656064
2018-03-30T00:49:44.796Z,9.656064
2018-03-30T00:49:56.945Z,9.656064
2018-03-30T00:50:09.118Z,9.656064
2018-03-30T00:50:21.257Z,11.265408
2018-03-30T00:50:33.397Z,12.874752
2018-03-30T00:50:45.578Z,12.874752
2018-03-30T00:50:57.724Z,12.874752
2018-03-30T00:51:09.871Z,8.04672
2018-03-30T00:51:22.021Z,11.265408
2018-03-30T00:51:34.163Z,11.265408
2018-03-30T00:51:46.298Z,11.265408
2018-03-30T00:51:58.442Z,14.484096
2018-03-30T00:52:10.673Z,9.656064
2018-03-30T00:52:22.810Z,9.656064
2018-03-30T00:52:34.955Z,9.656064
2018-03-30T00:52:47.134Z,9.656064
2018-03-30T00:52:59.508Z,9.656064
2018-03-30T00:53:11.766Z,9.656064
2018-03-30T00:53:23.891Z,9.656064
2018-03-30T00:53:36.046Z,11.265408
2018-03-30T00:53:48.200Z,11.265408
2018-03-30T00:54:00.410Z,11.265408
2018-03-30T00:54:12.581Z,9.656064
2018-03-30T00:54:24.729Z,12.874752
2018-03-30T00:54:36.873Z,12.874752
2018-03-30T00:54:49.028Z,12.874752
2018-03-30T00:55:01.350Z,12.874752
2018-03-30T00:55:13.490Z,14.484096
2018-03-30T00:55:25.646Z,14.484096
2018-03-30T00:55:37.795Z,14.484096
2018-03-30T00:55:49.947Z,14.484096
2018-03-30T00:56:02.122Z,14.484096
2018-03-30T00:56:14.277Z,12.874752
2018-03-30T00:56:26.441Z,12.874752
2018-03-30T00:56:38.590Z,14.484096
2018-03-30T00:56:50.743Z,14.484096
2018-03-30T00:57:02.899Z,17.702784
2018-03-30T00:57:15.053Z,17.702784
2018-03-30T00:57:27.416Z,17.702784
2018-03-30T00:57:39.607Z,17.702784
2018-03-30T00:57:51.767Z,17.702784
2018-03-30T00:58:03.912Z,8.04672
2018-03-30T00:58:16.237Z,8.04672
2018-03-30T00:58:28.393Z,12.874752
2018-03-30T00:58:40.550Z,12.874752
2018-03-30T00:58:52.706Z,12.874752
2018-03-30T00:59:04.886Z,11.265408
2018-03-30T00:59:17.043Z,12.874752
2018-03-30T00:59:29.189Z,12.874752
2018-03-30T00:59:41.352Z,12.874752
2018-03-30T00:59:53.486Z,12.874752
2018-03-30T01:00:05.663Z,12.874752
2018-03-30T01:00:17.828Z,12.874752
2018-03-30T01:00:29.967Z,14.484096
2018-03-30T01:00:42.156Z,14.484096
2018-03-30T01:00:54.302Z,14.484096
2018-03-30T01:01:06.459Z,9.656064
2018-03-30T01:01:18.605Z,11.265408
2018-03-30T01:01:30.757Z,11.265408
2018-03-30T01:01:42.909Z,12.874752
2018-03-30T01:01:55.133Z,16.09344
2018-03-30T01:02:07.266Z,11.265408
2018-03-30T01:02:19.437Z,12.874752
2018-03-30T01:02:31.615Z,12.874752
2018-03-30T01:02:43.816Z,12.874752
2018-03-30T01:02:55.971Z,12.874752
2018-03-30T01:03:08.344Z,16.09344
2018-03-30T01:03:20.595Z,16.09344
2018-03-30T01:03:32.748Z,16.09344
2018-03-30T01:03:44.878Z,16.09344
2018-03-30T01:03:57.025Z,17.702784
2018-03-30T01:04:09.189Z,8.04672
2018-03-30T01:04:21.718Z,11.265408
2018-03-30T01:04:33.875Z,14.484096
2018-03-30T01:04:46.348Z,16.09344
2018-03-30T01:04:58.517Z,16.09344
2018-03-30T01:05:10.693Z,12.874752
2018-03-30T01:05:22.848Z,16.09344
2018-03-30T01:05:34.988Z,16.09344
2018-03-30T01:05:47.142Z,16.09344
2018-03-30T01:05:59.315Z,16.09344
2018-03-30T01:06:11.486Z,17.702784
2018-03-30T01:06:23.643Z,17.702784
2018-03-30T01:06:35.808Z,17.702784
2018-03-30T01:06:47.975Z,17.702784
2018-03-30T01:07:00.160Z,17.702784
2018-03-30T01:07:12.333Z,8.04672
2018-03-30T01:07:24.507Z,8.04672
2018-03-30T01:07:36.683Z,11.265408
2018-03-30T01:07:48.819Z,16.09344
2018-03-30T01:08:00.968Z,16.09344
2018-03-30T01:08:13.111Z,11.265408
2018-03-30T01:08:25.296Z,11.265408
2018-03-30T01:08:37.478Z,11.265408
2018-03-30T01:08:49.600Z,11.265408
2018-03-30T01:09:02.182Z,11.265408
2018-03-30T01:09:14.355Z,9.656064
2018-03-30T01:09:26.508Z,11.265408
2018-03-30T01:09:38.634Z,12.874752
2018-03-30T01:09:50.786Z,14.484096
2018-03-30T01:10:02.928Z,14.484096
2018-03-30T01:10:15.064Z,11.265408
2018-03-30T01:10:27.215Z,12.874752
2018-03-30T01:10:39.359Z,12.874752
2018-03-30T01:10:51.497Z,12.874752
2018-03-30T01:11:03.673Z,11.265408
2018-03-30T01:11:15.843Z,12.874752
2018-03-30T01:11:28.048Z,12.874752
2018-03-30T01:11:40.200Z,12.874752
2018-03-30T01:11:52.357Z,12.874752
2018-03-30T01:12:04.546Z,14.484096
2018-03-30T01:12:16.705Z,14.484096
2018-03-30T01:12:28.844Z,14.484096
2018-03-30T01:12:40.986Z,14.484096
2018-03-30T01:12:53.159Z,14.484096
2018-03-30T01:13:05.376Z,11.265408
2018-03-30T01:13:17.526Z,12.874752
2018-03-30T01:13:29.684Z,12.874752
2018-03-30T01:13:41.837Z,12.874752
2018-03-30T01:13:53.981Z,12.874752
2018-03-30T01:14:06.130Z,8.04672
2018-03-30T01:14:18.299Z,8.04672
2018-03-30T01:14:30.505Z,9.656064
2018-03-30T01:14:42.703Z,9.656064
2018-03-30T01:14:54.844Z,12.874752
2018-03-30T01:15:06.995Z,11.265408
2018-03-30T01:15:19.148Z,11.265408
2018-03-30T01:15:31.309Z,11.265408
2018-03-30T01:15:43.461Z,11.265408
2018-03-30T01:15:55.645Z,11.265408
2018-03-30T01:16:07.859Z,11.265408
2018-03-30T01:16:20.036Z,11.265408
2018-03-30T01:16:32.215Z,11.265408
2018-03-30T01:16:44.418Z,11.265408
2018-03-30T01:16:56.569Z,12.874752
2018-03-30T01:17:08.722Z,9.656064
2018-03-30T01:17:20.876Z,9.656064
2018-03-30T01:17:33.026Z,9.656064
2018-03-30T01:17:45.163Z,11.265408
2018-03-30T01:17:57.371Z,11.265408
2018-03-30T01:18:09.540Z,8.04672
2018-03-30T01:18:21.748Z,11.265408
2018-03-30T01:18:33.927Z,11.265408
2018-03-30T01:18:46.077Z,11.265408
2018-03-30T01:18:58.242Z,11.265408
2018-03-30T01:19:10.402Z,6.437376
2018-03-30T01:19:22.563Z,11.265408
2018-03-30T01:19:34.710Z,11.265408
2018-03-30T01:19:46.880Z,11.265408
2018-03-30T01:19:59.041Z,11.265408
2018-03-30T01:20:11.216Z,9.656064
2018-03-30T01:20:23.365Z,9.656064
2018-03-30T01:20:35.523Z,9.656064
2018-03-30T01:20:47.700Z,9.656064
2018-03-30T01:20:59.846Z,9.656064
2018-03-30T01:21:12.020Z,6.437376
2018-03-30T01:21:24.168Z,8.04672
2018-03-30T01:21:36.460Z,8.04672
2018-03-30T01:21:48.631Z,8.04672
2018-03-30T01:22:00.783Z,8.04672
2018-03-30T01:22:12.941Z,9.656064
2018-03-30T01:22:25.150Z,9.656064
2018-03-30T01:22:37.320Z,11.265408
2018-03-30T01:22:49.533Z,11.265408
2018-03-30T01:23:01.962Z,11.265408
2018-03-30T01:23:14.122Z,8.04672
2018-03-30T01:23:26.288Z,8.04672
2018-03-30T01:23:38.447Z,8.04672
2018-03-30T01:23:50.612Z,8.04672
2018-03-30T01:24:02.825Z,8.04672
2018-03-30T01:24:14.975Z,9.656064
2018-03-30T01:24:27.106Z,9.656064
2018-03-30T01:24:39.239Z,9.656064
2018-03-30T01:24:51.428Z,9.656064
2018-03-30T01:25:03.559Z,3.218688
2018-03-30T01:25:15.723Z,8.04672
2018-03-30T01:25:27.893Z,8.04672
2018-03-30T01:25:40.057Z,8.04672
2018-03-30T01:25:52.235Z,8.04672
2018-03-30T01:26:04.376Z,6.437376
2018-03-30T01:26:16.592Z,6.437376
2018-03-30T01:26:28.726Z,11.265408
2018-03-30T01:26:40.941Z,11.265408
2018-03-30T01:26:53.075Z,11.265408
2018-03-30T01:27:05.267Z,8.04672
2018-03-30T01:27:17.440Z,8.04672
2018-03-30T01:27:29.620Z,8.04672
2018-03-30T01:27:41.760Z,8.04672
2018-03-30T01:27:53.890Z,8.04672
2018-03-30T01:28:06.042Z,4.828032
2018-03-30T01:28:18.219Z,4.828032
2018-03-30T01:28:30.463Z,4.828032
2018-03-30T01:28:42.607Z,4.828032
2018-03-30T01:28:54.742Z,11.265408
2018-03-30T01:29:06.880Z,8.04672
2018-03-30T01:29:19.046Z,8.04672
2018-03-30T01:29:31.247Z,8.04672
2018-03-30T01:29:43.394Z,8.04672
2018-03-30T01:29:55.550Z,9.656064
2018-03-30T01:30:07.722Z,6.437376
2018-03-30T01:30:19.922Z,8.04672
2018-03-30T01:30:32.063Z,8.04672
2018-03-30T01:30:44.213Z,8.04672
2018-03-30T01:30:56.369Z,8.04672
2018-03-30T01:31:08.535Z,11.265408
2018-03-30T01:31:20.720Z,11.265408
2018-03-30T01:31:32.964Z,11.265408
2018-03-30T01:31:45.127Z,12.874752
2018-03-30T01:31:57.300Z,12.874752
2018-03-30T01:32:09.497Z,9.656064
2018-03-30T01:32:21.677Z,9.656064
2018-03-30T01:32:33.874Z,9.656064
2018-03-30T01:32:46.050Z,9.656064
2018-03-30T01:32:58.196Z,9.656064
2018-03-30T01:33:10.348Z,9.656064
2018-03-30T01:33:22.520Z,9.656064
2018-03-30T01:33:34.674Z,9.656064
2018-03-30T01:33:46.844Z,9.656064
2018-03-30T01:33:58.994Z,9.656064
2018-03-30T01:34:11.149Z,6.437376
2018-03-30T01:34:23.341Z,6.437376
2018-03-30T01:34:35.622Z,6.437376
2018-03-30T01:34:47.740Z,6.437376
2018-03-30T01:34:59.899Z,6.437376
2018-03-30T01:35:12.019Z,6.437376
2018-03-30T01:35:24.154Z,8.04672
2018-03-30T01:35:36.298Z,8.04672
2018-03-30T01:35:48.455Z,8.04672
2018-03-30T01:36:00.645Z,8.04672
2018-03-30T01:36:12.789Z,3.218688
2018-03-30T01:36:24.957Z,3.218688
2018-03-30T01:36:37.126Z,9.656064
2018-03-30T01:36:49.273Z,9.656064
2018-03-30T01:37:01.454Z,9.656064
2018-03-30T01:37:13.621Z,6.437376
2018-03-30T01:37:25.779Z,8.04672
2018-03-30T01:37:37.973Z,8.04672
2018-03-30T01:37:50.135Z,8.04672
2018-03-30T01:38:02.293Z,8.04672
2018-03-30T01:38:14.436Z,8.04672
2018-03-30T01:38:26.597Z,8.04672
2018-03-30T01:38:38.759Z,8.04672
2018-03-30T01:38:50.920Z,8.04672
2018-03-30T01:39:03.087Z,8.04672
2018-03-30T01:39:15.248Z,3.218688
2018-03-30T01:39:27.403Z,8.04672
2018-03-30T01:39:39.618Z,8.04672
2018-03-30T01:39:51.786Z,8.04672
2018-03-30T01:40:03.944Z,3.218688
2018-03-30T01:40:16.090Z,8.04672
2018-03-30T01:40:28.250Z,8.04672
2018-03-30T01:40:40.396Z,8.04672
2018-03-30T01:40:52.558Z,8.04672
2018-03-30T01:41:04.728Z,3.218688
2018-03-30T01:41:16.879Z,3.218688
2018-03-30T01:41:29.050Z,3.218688
2018-03-30T01:41:41.217Z,3.218688
2018-03-30T01:41:53.425Z,6.437376
2018-03-30T01:42:05.568Z,6.437376
2018-03-30T01:42:17.712Z,6.437376
2018-03-30T01:42:29.896Z,6.437376
2018-03-30T01:42:42.052Z,6.437376
2018-03-30T01:42:54.180Z,6.437376
2018-03-30T01:43:06.328Z,1.609344
2018-03-30T01:43:18.490Z,3.218688
2018-03-30T01:43:30.629Z,3.218688
2018-03-30T01:43:42.824Z,3.218688
2018-03-30T01:43:54.968Z,3.218688
2018-03-30T01:44:07.108Z,1.609344
2018-03-30T01:44:19.260Z,1.609344
2018-03-30T01:44:31.756Z,1.609344
2018-03-30T01:44:43.915Z,1.609344
2018-03-30T01:44:56.063Z,1.609344
2018-03-30T01:45:08.274Z,1.609344
2018-03-30T01:45:20.484Z,1.609344
2018-03-30T01:45:32.639Z,4.828032
2018-03-30T01:45:44.780Z,4.828032
2018-03-30T01:45:56.949Z,4.828032
2018-03-30T01:46:09.116Z,1.609344
2018-03-30T01:46:21.277Z,1.609344
2018-03-30T01:46:33.429Z,1.609344
2018-03-30T01:46:45.586Z,1.609344
2018-03-30T01:46:57.719Z,1.609344
2018-03-30T01:47:09.890Z,1.609344
2018-03-30T01:47:22.033Z,1.609344
2018-03-30T01:47:34.168Z,1.609344
2018-03-30T01:47:46.331Z,1.609344
2018-03-30T01:47:58.657Z,1.609344
2018-03-30T01:48:10.812Z,1.609344
2018-03-30T01:48:22.987Z,1.609344
2018-03-30T01:48:35.185Z,1.609344
2018-03-30T01:48:47.360Z,1.609344
2018-03-30T01:48:59.673Z,1.609344
2018-03-30T01:49:11.870Z,3.218688
2018-03-30T01:49:24.042Z,3.218688
2018-03-30T01:49:36.252Z,3.218688
2018-03-30T01:49:48.410Z,3.218688
2018-03-30T01:50:00.598Z,3.218688
2018-03-30T01:50:12.769Z,1.609344
2018-03-30T01:50:24.907Z,1.609344
2018-03-30T01:50:37.087Z,1.609344
2018-03-30T01:50:49.247Z,1.609344
2018-03-30T01:51:01.422Z,1.609344
2018-03-30T01:51:13.586Z,1.609344
2018-03-30T01:51:25.732Z,3.218688
2018-03-30T01:51:37.859Z,3.218688
2018-03-30T01:51:50.016Z,3.218688
2018-03-30T01:52:02.178Z,3.218688
2018-03-30T01:52:14.348Z,3.218688
2018-03-30T01:52:26.560Z,3.218688
2018-03-30T01:52:38.773Z,3.218688
2018-03-30T01:52:50.908Z,3.218688
2018-03-30T01:53:03.041Z,3.218688
2018-03-30T01:53:15.371Z,1.609344
2018-03-30T01:53:27.527Z,1.609344
2018-03-30T01:53:39.717Z,1.609344
2018-03-30T01:53:51.893Z,1.609344
2018-03-30T01:54:04.036Z,0
2018-03-30T01:54:16.205Z,0
2018-03-30T01:54:28.368Z,1.609344
2018-03-30T01:54:40.520Z,1.609344
2018-03-30T01:54:52.706Z,1.609344
2018-03-30T01:55:05.162Z,0
2018-03-30T01:55:17.394Z,0
2018-03-30T01:55:29.548Z,0
2018-03-30T01:55:41.760Z,0
2018-03-30T01:55:53.901Z,1.609344
2018-03-30T01:56:06.029Z,0
2018-03-30T01:56:18.196Z,0
2018-03-30T01:56:30.324Z,0
2018-03-30T01:56:42.460Z,0
2018-03-30T01:56:54.666Z,0
2018-03-30T01:57:06.809Z,0
2018-03-30T01:57:18.939Z,1.609344
2018-03-30T01:57:31.126Z,1.609344
2018-03-30T01:57:43.272Z,1.609344
2018-03-30T01:57:55.445Z,1.609344
2018-03-30T01:58:07.614Z,4.828032
2018-03-30T01:58:19.803Z,4.828032
2018-03-30T01:58:31.982Z,6.437376
2018-03-30T01:58:44.130Z,6.437376
2018-03-30T01:58:56.282Z,6.437376
2018-03-30T01:59:08.784Z,1.609344
2018-03-30T01:59:20.943Z,1.609344
2018-03-30T01:59:33.098Z,1.609344
2018-03-30T01:59:45.248Z,3.218688
2018-03-30T01:59:57.386Z,3.218688
2018-03-30T02:00:09.545Z,3.218688
2018-03-30T02:00:21.733Z,3.218688
2018-03-30T02:00:33.894Z,3.218688
2018-03-30T02:00:46.079Z,3.218688
2018-03-30T02:00:58.881Z,3.218688
2018-03-30T02:01:11.088Z,0
2018-03-30T02:01:23.293Z,0
2018-03-30T02:01:35.506Z,1.609344
2018-03-30T02:01:47.669Z,3.218688
2018-03-30T02:01:59.815Z,3.218688
2018-03-30T02:02:11.998Z,3.218688
2018-03-30T02:02:24.149Z,4.828032
2018-03-30T02:02:36.356Z,6.437376
2018-03-30T02:02:48.499Z,6.437376
2018-03-30T02:03:00.641Z,6.437376
2018-03-30T02:03:12.815Z,4.828032
2018-03-30T02:03:24.965Z,4.828032
2018-03-30T02:03:37.123Z,6.437376
2018-03-30T02:03:49.305Z,6.437376
2018-03-30T02:04:01.521Z,6.437376
2018-03-30T02:04:13.729Z,3.218688
2018-03-30T02:04:25.901Z,3.218688
2018-03-30T02:04:38.106Z,3.218688
2018-03-30T02:04:50.469Z,3.218688
2018-03-30T02:05:02.637Z,3.218688
2018-03-30T02:05:14.801Z,1.609344
2018-03-30T02:05:26.953Z,1.609344
2018-03-30T02:05:39.106Z,1.609344
2018-03-30T02:05:51.263Z,1.609344
2018-03-30T02:06:03.428Z,3.218688
2018-03-30T02:06:15.569Z,3.218688
2018-03-30T02:06:27.734Z,3.218688
2018-03-30T02:06:39.868Z,4.828032
2018-03-30T02:06:51.990Z,4.828032
2018-03-30T02:07:04.148Z,3.218688
2018-03-30T02:07:16.374Z,3.218688
2018-03-30T02:07:28.524Z,4.828032
2018-03-30T02:07:40.746Z,6.437376
2018-03-30T02:07:52.904Z,6.437376
2018-03-30T02:08:05.066Z,1.609344
2018-03-30T02:08:17.223Z,3.218688
2018-03-30T02:08:29.372Z,3.218688
2018-03-30T02:08:41.587Z,3.218688
2018-03-30T02:08:53.972Z,3.218688
2018-03-30T02:09:06.150Z,1.609344
2018-03-30T02:09:18.276Z,3.218688
2018-03-30T02:09:30.426Z,3.218688
2018-03-30T02:09:42.556Z,3.218688
2018-03-30T02:09:54.725Z,6.437376
2018-03-30T02:10:06.869Z,8.04672
2018-03-30T02:10:19.019Z,8.04672
2018-03-30T02:10:31.186Z,9.656064
2018-03-30T02:10:43.347Z,9.656064
2018-03-30T02:10:55.492Z,9.656064
2018-03-30T02:11:07.668Z,8.04672
2018-03-30T02:11:19.821Z,9.656064
2018-03-30T02:11:31.976Z,9.656064
2018-03-30T02:11:44.127Z,9.656064
2018-03-30T02:11:56.286Z,9.656064
2018-03-30T02:12:08.435Z,3.218688
2018-03-30T02:12:20.597Z,3.218688
2018-03-30T02:12:32.770Z,3.218688
2018-03-30T02:12:44.907Z,3.218688
2018-03-30T02:12:57.161Z,3.218688
2018-03-30T02:13:09.308Z,1.609344
2018-03-30T02:13:21.479Z,1.609344
2018-03-30T02:13:33.628Z,1.609344
2018-03-30T02:13:45.787Z,3.218688
2018-03-30T02:13:57.970Z,3.218688
2018-03-30T02:14:10.134Z,3.218688
2018-03-30T02:14:22.409Z,3.218688
2018-03-30T02:14:34.629Z,3.218688
2018-03-30T02:14:46.775Z,3.218688
2018-03-30T02:14:59.090Z,3.218688
2018-03-30T02:15:11.234Z,1.609344
2018-03-30T02:15:23.377Z,1.609344
2018-03-30T02:15:35.522Z,1.609344
2018-03-30T02:15:47.725Z,1.609344
2018-03-30T02:16:00.124Z,1.609344
2018-03-30T02:16:12.462Z,3.218688
2018-03-30T02:16:24.679Z,3.218688
2018-03-30T02:16:36.828Z,3.218688
2018-03-30T02:16:48.959Z,3.218688
2018-03-30T02:17:01.112Z,3.218688
2018-03-30T02:17:13.286Z,0
2018-03-30T02:17:25.442Z,3.218688
2018-03-30T02:17:37.618Z,3.218688
2018-03-30T02:17:49.773Z,3.218688
2018-03-30T02:18:01.952Z,3.218688
2018-03-30T02:18:14.099Z,6.437376
2018-03-30T02:18:26.327Z,6.437376
2018-03-30T02:18:38.516Z,6.437376
2018-03-30T02:18:50.690Z,8.04672
2018-03-30T02:19:02.847Z,8.04672
2018-03-30T02:19:15.008Z,8.04672
2018-03-30T02:19:27.168Z,8.04672
2018-03-30T02:19:39.309Z,8.04672
2018-03-30T02:19:51.443Z,8.04672
2018-03-30T02:20:03.589Z,3.218688
2018-03-30T02:20:15.758Z,3.218688
2018-03-30T02:20:27.935Z,3.218688
2018-03-30T02:20:40.090Z,3.218688
2018-03-30T02:20:52.237Z,3.218688
2018-03-30T02:21:04.403Z,3.218688
2018-03-30T02:21:16.547Z,3.218688
2018-03-30T02:21:28.711Z,4.828032
2018-03-30T02:21:40.852Z,4.828032
2018-03-30T02:21:53.006Z,4.828032
2018-03-30T02:22:05.214Z,1.609344
2018-03-30T02:22:17.356Z,1.609344
2018-03-30T02:22:29.502Z,3.218688
2018-03-30T02:22:41.711Z,4.828032
2018-03-30T02:22:53.877Z,4.828032
2018-03-30T02:23:06.111Z,3.218688
2018-03-30T02:23:18.262Z,3.218688
2018-03-30T02:23:30.411Z,3.218688